Time;durP1;ratioP1;P1;durP2;ratioP2;P2;SDS_P1;SDS_P2;PMS_P1;PMS_P2;Temp;Humidity;BMP_temperature;BMP_pressure;BME280_temperature;BME280_humidity;BME280_pressure;Samples;Min_cycle;Max_cycle;Signal;HPM_P1;HPM_P2
2022/01/16 00:00:40;;;;;;;89.60;31.42;;;;;;;;;;6226133;22;20360;-64
2022/01/16 00:05:56;;;;;;;84.25;30.13;;;;;;;;;;6249830;22;20042;-64
2022/01/16 00:08:22;;;;;;;82.55;30.02;;;;;;;;;;6224630;22;20019;-64
2022/01/16 00:10:48;;;;;;;77.05;25.60;;;;;;;;;;6250612;22;20012;-64
2022/01/16 00:13:14;;;;;;;81.80;29.80;;;;;;;;;;6250012;22;20018;-64
2022/01/16 00:15:44;;;;;;;85.47;28.67;;;;;;;;;;6250391;22;20065;-64
2022/01/16 00:18:19;;;;;;;81.70;31.48;;;;;;;;;;6249337;22;20079;-64
2022/01/16 00:20:46;;;;;;;81.28;28.70;;;;;;;;;;6224260;22;20094;-64
2022/01/16 00:23:12;;;;;;;83.07;31.20;;;;;;;;;;6224587;22;20306;-63
2022/01/16 00:25:38;;;;;;;82.00;29.40;;;;;;;;;;6224263;22;20019;-64
2022/01/16 00:28:04;;;;;;;85.40;30.10;;;;;;;;;;6224735;22;20016;-63
2022/01/16 00:30:30;;;;;;;87.70;29.75;;;;;;;;;;6276032;22;20450;-64
2022/01/16 00:33:00;;;;;;;82.25;28.77;;;;;;;;;;6225032;22;20022;-64
2022/01/16 00:35:27;;;;;;;86.75;29.23;;;;;;;;;;6249241;22;20432;-64
2022/01/16 00:37:53;;;;;;;96.90;31.15;;;;;;;;;;6276749;22;20302;-64
2022/01/16 00:40:19;;;;;;;82.70;31.92;;;;;;;;;;6249335;22;20026;-64
2022/01/16 00:42:45;;;;;;;99.85;32.42;;;;;;;;;;6277138;22;20321;-63
2022/01/16 00:45:11;;;;;;;96.13;28.27;;;;;;;;;;6249735;22;20447;-64
2022/01/16 00:47:37;;;;;;;93.00;31.80;;;;;;;;;;6249150;22;20015;-65
2022/01/16 00:50:04;;;;;;;99.78;32.97;;;;;;;;;;6276472;22;20042;-64
2022/01/16 00:52:30;;;;;;;91.68;31.58;;;;;;;;;;6249248;22;20053;-63
2022/01/16 00:55:02;;;;;;;110.38;32.92;;;;;;;;;;6249888;22;20019;-64
2022/01/16 00:57:28;;;;;;;103.07;33.00;;;;;;;;;;6252512;22;20082;-63
2022/01/16 00:59:54;;;;;;;103.68;36.20;;;;;;;;;;6251643;22;20015;-64
2022/01/16 01:02:21;;;;;;;99.45;31.70;;;;;;;;;;6251171;22;20445;-64
2022/01/16 01:04:47;;;;;;;102.22;34.17;;;;;;;;;;6278925;22;20149;-63
2022/01/16 01:07:14;;;;;;;104.97;32.42;;;;;;;;;;6251316;22;20083;-64
2022/01/16 01:09:40;;;;;;;101.25;31.10;;;;;;;;;;6227130;22;20018;-64
2022/01/16 01:12:06;;;;;;;112.38;35.20;;;;;;;;;;6277987;22;20043;-65
2022/01/16 01:15:04;;;;;;;113.75;29.42;;;;;;;;;;6279152;22;20065;-64
2022/01/16 01:17:34;;;;;;;117.88;31.90;;;;;;;;;;6278051;22;20023;-63
2022/01/16 01:20:00;;;;;;;117.25;30.13;;;;;;;;;;6279814;22;20016;-64
2022/01/16 01:22:26;;;;;;;110.80;32.63;;;;;;;;;;6225718;22;20064;-64
2022/01/16 01:24:52;;;;;;;111.75;29.50;;;;;;;;;;6251306;22;20011;-64
2022/01/16 01:27:23;;;;;;;142.30;35.03;;;;;;;;;;6251174;22;20018;-64
2022/01/16 01:29:58;;;;;;;;;;;2.50;99.90;;;;;;6279668;22;20073;-64
2022/01/16 01:32:24;;;;;;;152.25;31.98;;;;;;;;;;6253007;22;19965;-64
2022/01/16 01:34:50;;;;;;;120.30;30.88;;;;;;;;;;6251589;22;20016;-64
2022/01/16 01:37:16;;;;;;;117.00;32.10;;;;;;;;;;6251561;22;20015;-64
2022/01/16 01:39:42;;;;;;;120.53;32.58;;;;;;;;;;6250577;22;20020;-64
2022/01/16 01:42:11;;;;;;;117.72;33.78;;;;;;;;;;6251842;22;20073;-64
2022/01/16 01:52:51;;;;;;;112.53;27.08;;;;;;;;;;6251055;22;20075;-64
2022/01/16 01:55:18;;;;;;;154.98;32.95;;;;;;;;;;6279135;22;20066;-64
2022/01/16 01:57:44;;;;;;;129.82;33.13;;;;;;;;;;6226253;22;20015;-64
2022/01/16 02:00:17;;;;;;;124.72;34.63;;;;;;;;;;6226155;22;20016;-64
2022/01/16 02:03:01;;;;;;;140.02;33.17;;;;;;;;;;6278100;22;20027;-65
2022/01/16 02:05:27;;;;;;;107.80;30.55;;;;;;;;;;6251070;22;20325;-64
2022/01/16 02:07:53;;;;;;;70.35;19.77;;;;;;;;;;6250672;22;20086;-64
2022/01/16 02:10:19;;;;;;;144.63;34.97;;;;;;;;;;6250788;22;20038;-64
2022/01/16 02:12:48;;;;;;;135.88;33.17;;;;;;;;;;6251051;22;20020;-63
2022/01/16 02:15:37;;;;;;;152.90;36.67;;;;;;;;;;6250648;22;20020;-64
2022/01/16 02:34:36;;;;;;;110.20;26.27;;;;;;;;;;6251071;22;20020;-64
2022/01/16 02:37:10;;;;;;;122.65;34.53;;;;;;;;;;6251029;22;20333;-64
2022/01/16 02:39:40;;;;;;;126.32;34.67;;;;;;;;;;6250969;22;20329;-64
2022/01/16 02:42:07;;;;;;;117.32;31.00;;;;;;;;;;6225447;22;20043;-64
2022/01/16 02:44:42;;;;;;;123.95;29.08;;;;;;;;;;6251068;22;20149;-64
2022/01/16 02:47:10;;;;;;;128.90;31.88;;;;;;;;;;6251146;22;20313;-64
2022/01/16 02:49:40;;;;;;;96.65;27.60;;;;;;;;;;6250627;22;20023;-66
2022/01/16 02:52:08;;;;;;;122.38;33.88;;;;;;;;;;6226190;22;20051;-64
2022/01/16 02:54:37;;;;;;;112.88;32.38;;;;;;;;;;6249931;22;20016;-64
2022/01/16 02:57:04;;;;;;;124.72;33.60;;;;;;;;;;6250501;22;20012;-64
2022/01/16 02:59:30;;;;;;;163.30;37.40;;;;;;;;;;6224906;22;20030;-64
2022/01/16 03:01:57;;;;;;;122.28;32.00;;;;;;;;;;6277329;22;20019;-64
2022/01/16 03:04:23;;;;;;;131.40;36.03;;;;;;;;;;6250067;22;20015;-63
2022/01/16 03:06:49;;;;;;;101.00;28.23;;;;;;;;;;6251259;22;20019;-64
2022/01/16 03:09:16;;;;;;;112.22;30.80;;;;;;;;;;6250212;22;20018;-63
2022/01/16 03:11:47;;;;;;;108.32;26.73;;;;;;;;;;6225735;22;20023;-64
2022/01/16 03:14:14;;;;;;;109.57;29.25;;;;;;;;;;6250784;22;20012;-64
2022/01/16 03:16:44;;;;;;;146.23;35.45;;;;;;;;;;6250593;22;20016;-63
2022/01/16 03:21:57;;;;;;;135.20;38.03;;;;;;;;;;6250040;22;20025;-64
2022/01/16 03:24:27;;;;;;;127.57;30.92;;;;;;;;;;6250875;22;20012;-64
2022/01/16 03:26:54;;;;;;;144.43;34.47;;;;;;;;;;6249974;22;20046;-64
2022/01/16 03:29:20;;;;;;;134.52;34.80;;;;;;;;;;6250712;22;20024;-64
2022/01/16 03:31:46;;;;;;;178.15;38.67;;;;;;;;;;6249995;22;20027;-64
2022/01/16 03:34:12;;;;;;;152.65;36.85;;;;;;;;;;6250727;22;20011;-64
2022/01/16 03:36:38;;;;;;;149.82;38.83;;;;;;;;;;6250547;22;20058;-64
2022/01/16 03:39:04;;;;;;;151.73;36.75;;;;;;;;;;6276918;22;20012;-65
2022/01/16 03:41:33;;;;;;;173.88;36.90;;;;;;;;;;6249932;22;20089;-65
2022/01/16 03:44:01;;;;;;;190.48;41.63;;;;;;;;;;6249966;22;20019;-65
2022/01/16 03:46:29;;;;;;;141.73;37.85;;;;;;;;;;6250113;22;20015;-65
2022/01/16 03:48:56;;;;;;;156.10;39.92;;;;;;;;;;6249983;22;20105;-64
2022/01/16 03:51:22;;;;;;;158.00;38.33;;;;;;;;;;6250482;22;20042;-64
2022/01/16 03:53:50;;;;;;;156.43;38.80;;;;;;;;;;6249978;22;20008;-64
2022/01/16 03:56:16;;;;;;;137.85;34.13;;;;;;;;;;6250963;22;20050;-64
2022/01/16 03:58:42;;;;;;;165.73;34.97;;;;;;;;;;6225053;22;20011;-64
2022/01/16 04:01:08;;;;;;;160.65;38.15;;;;;;;;;;6276652;22;20085;-63
2022/01/16 04:03:34;;;;;;;171.40;39.25;;;;;;;;;;6249931;22;20012;-63
2022/01/16 04:06:01;;;;;;;235.32;42.65;;;;;;;;;;6249946;22;20092;-63
2022/01/16 04:08:27;;;;;;;182.82;40.03;;;;;;;;;;6250736;22;20016;-64
2022/01/16 04:10:53;;;;;;;184.50;42.83;;;;;;;;;;6250440;22;20014;-64
2022/01/16 04:13:21;;;;;;;192.90;42.92;;;;;;;;;;6249465;22;20019;-64
2022/01/16 04:15:47;;;;;;;190.48;39.58;;;;;;;;;;6250096;22;20012;-64
2022/01/16 04:18:13;;;;;;;182.05;39.72;;;;;;;;;;6276652;22;20023;-65
2022/01/16 04:20:39;;;;;;;170.32;40.85;;;;;;;;;;6249530;22;20038;-64
2022/01/16 04:23:06;;;;;;;168.43;38.13;;;;;;;;;;6250238;22;20020;-64
2022/01/16 04:25:32;;;;;;;166.88;36.90;;;;;;;;;;6250346;22;20047;-64
2022/01/16 04:27:58;;;;;;;118.00;30.23;;;;;;;;;;6250529;22;20066;-64
2022/01/16 04:30:25;;;;;;;166.30;32.58;;;;;;;;;;6250191;22;20008;-64
2022/01/16 04:32:51;;;;;;;197.82;41.55;;;;;;;;;;6249894;22;20099;-64
2022/01/16 04:35:17;;;;;;;202.82;43.55;;;;;;;;;;6250058;22;20012;-63
2022/01/16 04:37:44;;;;;;;200.70;42.75;;;;;;;;;;6251228;22;20317;-63
2022/01/16 04:40:10;;;;;;;183.82;41.70;;;;;;;;;;6249782;22;20016;-63
2022/01/16 04:45:22;;;;;;;199.95;44.88;;;;;;;;;;6249866;22;20317;-63
2022/01/16 04:47:50;;;;;;;155.10;36.50;;;;;;;;;;6249400;22;20038;-64
2022/01/16 04:50:16;;;;;;;145.40;29.10;;;;;;;;;;6249967;22;20023;-64
2022/01/16 04:52:44;;;;;;;178.80;42.42;;;;;;;;;;6249816;22;20421;-64
2022/01/16 04:55:11;;;;;;;197.10;46.17;;;;;;;;;;6224391;22;20439;-64
2022/01/16 04:57:38;;;;;;;183.85;43.65;;;;;;;;;;6250161;22;20018;-63
2022/01/16 05:00:11;;;;;;;200.85;40.97;;;;;;;;;;6249759;22;20023;-64
2022/01/16 05:02:37;;;;;;;179.95;41.88;;;;;;;;;;6250083;22;20043;-64
2022/01/16 05:05:03;;;;;;;176.45;38.10;;;;;;;;;;6224631;22;20016;-64
2022/01/16 05:07:29;;;;;;;155.95;38.58;;;;;;;;;;6249458;22;20012;-65
2022/01/16 05:09:55;;;;;;;182.52;44.38;;;;;;;;;;6249655;22;20008;-64
2022/01/16 05:12:31;;;;;;;182.70;40.58;;;;;;;;;;6249377;22;20008;-64
2022/01/16 05:17:41;;;;;;;165.05;39.85;;;;;;;;;;6249655;22;20019;-63
2022/01/16 05:20:08;;;;;;;184.75;43.05;;;;;;;;;;6225144;22;20400;-64
2022/01/16 05:22:34;;;;;;;184.80;44.13;;;;;;;;;;6249996;22;20047;-64
2022/01/16 05:25:01;;;;;;;209.10;46.83;;;;;;;;;;6224682;22;20058;-63
2022/01/16 05:27:27;;;;;;;169.27;39.22;;;;;;;;;;6248503;22;20014;-65
2022/01/16 05:29:53;;;;;;;181.98;42.83;;;;;;;;;;6224332;22;20016;-64
2022/01/16 05:32:19;;;;;;;199.00;44.60;;;;;;;;;;6249519;22;20014;-65
2022/01/16 05:34:45;;;;;;;192.50;46.17;;;;;;;;;;6224630;22;20321;-64
2022/01/16 05:37:11;;;;;;;194.30;45.28;;;;;;;;;;6250397;22;20066;-64
2022/01/16 05:39:39;;;;;;;189.43;41.75;;;;;;;;;;6224202;22;20016;-64
2022/01/16 05:42:05;;;;;;;165.93;38.45;;;;;;;;;;6250836;22;20018;-64
2022/01/16 05:44:31;;;;;;;194.45;46.30;;;;;;;;;;6251663;22;20020;-64
2022/01/16 05:47:02;;;;;;;186.73;43.20;;;;;;;;;;6252107;22;20016;-63
2022/01/16 05:49:28;;;;;;;201.15;48.03;;;;;;;;;;6251935;22;20356;-64
2022/01/16 05:51:54;;;;;;;190.25;45.45;;;;;;;;;;6251884;22;20012;-64
2022/01/16 05:54:20;;;;;;;211.70;47.00;;;;;;;;;;6226189;22;20018;-63
2022/01/16 05:56:46;;;;;;;187.57;44.05;;;;;;;;;;6251480;22;20020;-64
2022/01/16 05:59:12;;;;;;;190.40;42.20;;;;;;;;;;6251645;22;20485;-64
2022/01/16 06:01:38;;;;;;;196.68;41.97;;;;;;;;;;6251115;22;20090;-63
2022/01/16 06:04:04;;;;;;;231.95;47.17;;;;;;;;;;6225579;22;20047;-64
2022/01/16 06:06:30;;;;;;;201.55;42.90;;;;;;;;;;6251214;22;20016;-63
2022/01/16 06:08:56;;;;;;;215.50;46.67;;;;;;;;;;6250708;22;20012;-64
2022/01/16 06:11:22;;;;;;;191.00;44.60;;;;;;;;;;6225688;22;20061;-63
2022/01/16 06:13:48;;;;;;;171.23;41.20;;;;;;;;;;6251193;22;20012;-64
2022/01/16 06:16:14;;;;;;;183.93;44.47;;;;;;;;;;6250799;22;20318;-64
2022/01/16 06:18:40;;;;;;;184.07;41.70;;;;;;;;;;6251082;22;20016;-64
2022/01/16 06:21:06;;;;;;;202.98;43.60;;;;;;;;;;6250610;22;20012;-64
2022/01/16 06:23:32;;;;;;;196.20;47.05;;;;;;;;;;6251505;22;20046;-64
2022/01/16 06:25:58;;;;;;;158.02;38.97;;;;;;;;;;6277619;22;20062;-64
2022/01/16 06:28:25;;;;;;;204.50;45.53;;;;;;;;;;6251376;22;20019;-65
2022/01/16 06:30:51;;;;;;;179.10;43.92;;;;;;;;;;6227214;22;20066;-64
2022/01/16 06:33:17;;;;;;;182.20;43.67;;;;;;;;;;6250787;22;20015;-64
2022/01/16 06:35:43;;;;;;;192.48;47.88;;;;;;;;;;6251139;22;20099;-64
2022/01/16 06:38:09;;;;;;;176.68;41.97;;;;;;;;;;6250775;22;20066;-65
2022/01/16 06:40:35;;;;;;;191.07;43.22;;;;;;;;;;6250874;22;20417;-64
2022/01/16 06:43:01;;;;;;;169.48;42.25;;;;;;;;;;6277604;22;20019;-64
2022/01/16 06:45:28;;;;;;;170.45;45.03;;;;;;;;;;6225507;22;20077;-64
2022/01/16 06:47:54;;;;;;;165.10;43.25;;;;;;;;;;6225435;22;20011;-64
2022/01/16 06:50:20;;;;;;;174.07;42.67;;;;;;;;;;6251193;22;20019;-64
2022/01/16 06:52:46;;;;;;;187.25;45.55;;;;;;;;;;6278105;22;20142;-64
2022/01/16 06:55:13;;;;;;;175.98;46.50;;;;;;;;;;6250783;22;20026;-64
2022/01/16 06:57:39;;;;;;;165.60;39.88;;;;;;;;;;6250276;22;20042;-65
2022/01/16 07:00:06;;;;;;;170.88;44.45;;;;;;;;;;6250489;22;20043;-64
2022/01/16 07:02:32;;;;;;;175.95;43.72;;;;;;;;;;6250323;22;20058;-64
2022/01/16 07:04:58;;;;;;;172.13;47.10;;;;;;;;;;6277654;22;20336;-63
2022/01/16 07:07:24;;;;;;;191.07;47.25;;;;;;;;;;6249837;22;20011;-65
2022/01/16 07:09:50;;;;;;;162.23;42.00;;;;;;;;;;6250764;22;20045;-64
2022/01/16 07:12:16;;;;;;;177.50;45.78;;;;;;;;;;6250179;22;20012;-64
2022/01/16 07:14:43;;;;;;;167.48;42.15;;;;;;;;;;6224968;22;20019;-64
2022/01/16 07:17:09;;;;;;;151.23;42.08;;;;;;;;;;6250092;22;20015;-64
2022/01/16 07:19:35;;;;;;;164.75;42.85;;;;;;;;;;6249991;22;20014;-64
2022/01/16 07:22:01;;;;;;;174.55;45.55;;;;;;;;;;6250203;22;20018;-64
2022/01/16 07:24:28;;;;;;;181.52;47.05;;;;;;;;;;6250196;22;20016;-64
2022/01/16 07:26:54;;;;;;;159.70;42.40;;;;;;;;;;6250663;22;20012;-64
2022/01/16 07:29:20;;;;;;;166.75;46.33;;;;;;;;;;6249929;22;20101;-64
2022/01/16 07:31:47;;;;;;;143.32;38.22;;;;;;;;;;6249862;22;20042;-64
2022/01/16 07:34:13;;;;;;;148.95;45.72;;;;;;;;;;6249990;22;20091;-64
2022/01/16 07:36:39;;;;;;;158.57;45.00;;;;;;;;;;6250265;22;20046;-64
2022/01/16 07:39:05;;;;;;;147.85;44.10;;;;;;;;;;6250696;22;20023;-63
2022/01/16 07:41:32;;;;;;;135.20;41.28;;;;;;;;;;6199778;22;20015;-63
2022/01/16 07:43:58;;;;;;;146.77;44.15;;;;;;;;;;6250299;22;20012;-63
2022/01/16 07:46:24;;;;;;;124.20;40.05;;;;;;;;;;6249704;22;20043;-64
2022/01/16 07:48:50;;;;;;;136.20;42.88;;;;;;;;;;6250523;22;20011;-65
2022/01/16 07:51:16;;;;;;;108.78;38.08;;;;;;;;;;6250171;22;20011;-65
2022/01/16 07:53:42;;;;;;;116.78;41.67;;;;;;;;;;6250096;22;20447;-65
2022/01/16 07:56:08;;;;;;;113.00;38.83;;;;;;;;;;6250171;22;20425;-65
2022/01/16 07:58:34;;;;;;;107.55;40.92;;;;;;;;;;6250063;22;20012;-65
2022/01/16 08:01:00;;;;;;;98.70;37.25;;;;;;;;;;6250999;22;20011;-65
2022/01/16 08:03:26;;;;;;;87.90;36.97;;;;;;;;;;6249652;22;20325;-65
2022/01/16 08:05:52;;;;;;;83.88;33.72;;;;;;;;;;6249472;22;20018;-65
2022/01/16 08:08:18;;;;;;;88.28;33.90;;;;;;;;;;6249882;22;20020;-65
2022/01/16 08:10:44;;;;;;;72.90;29.48;;;;;;;;;;6250214;22;20325;-65
2022/01/16 08:13:10;;;;;;;92.25;33.88;;;;;;;;;;6250567;22;20020;-65
2022/01/16 08:15:37;;;;;;;70.55;30.63;;;;;;;;;;6249734;22;20020;-64
2022/01/16 08:18:03;;;;;;;44.45;21.45;;;;;;;;;;6250058;22;20015;-65
2022/01/16 08:20:29;;;;;;;57.17;27.27;;;;;;;;;;6276506;22;20011;-65
2022/01/16 08:22:55;;;;;;;41.42;21.27;;;;;;;;;;6224961;22;20015;-65
2022/01/16 08:25:22;;;;;;;59.83;27.70;;;;;;;;;;6249825;22;20012;-65
2022/01/16 08:27:48;;;;;;;56.20;28.08;;;;;;;;;;6223945;22;20099;-65
2022/01/16 08:30:14;;;;;;;60.95;28.92;;;;;;;;;;6277011;22;20047;-65
2022/01/16 08:32:43;;;;;;;71.40;27.58;;;;;;;;;;6250209;22;20023;-65
2022/01/16 08:35:12;;;;;;;65.47;28.48;;;;;;;;;;6248991;22;20086;-64
2022/01/16 08:37:38;;;;;;;52.53;24.00;;;;;;;;;;6224866;22;20016;-64
2022/01/16 08:40:04;;;;;;;54.78;28.38;;;;;;;;;;6249863;22;20310;-64
2022/01/16 08:42:30;;;;;;;52.13;25.42;;;;;;;;;;6249653;22;20023;-64
2022/01/16 08:44:57;;;;;;;55.15;25.00;;;;;;;;;;6276898;22;20018;-63
2022/01/16 08:47:23;;;;;;;50.92;23.40;;;;;;;;;;6250899;22;20008;-63
2022/01/16 08:49:49;;;;;;;55.28;26.25;;;;;;;;;;6250478;22;20007;-64
2022/01/16 08:52:17;;;;;;;51.33;24.60;;;;;;;;;;6224463;22;20294;-64
2022/01/16 08:54:43;;;;;;;59.50;26.80;;;;;;;;;;6250714;22;20323;-64
2022/01/16 08:57:09;;;;;;;54.95;25.73;;;;;;;;;;6250217;22;20467;-63
2022/01/16 08:59:35;;;;;;;49.72;24.55;;;;;;;;;;6224140;22;20043;-65
2022/01/16 09:02:01;;;;;;;59.42;26.45;;;;;;;;;;6250808;22;20022;-64
2022/01/16 09:04:27;;;;;;;52.88;25.98;;;;;;;;;;6249811;22;20015;-64
2022/01/16 09:06:53;;;;;;;50.72;22.00;;;;;;;;;;6250725;22;20016;-64
2022/01/16 09:09:19;;;;;;;48.40;24.40;;;;;;;;;;6249180;22;20030;-64
2022/01/16 09:11:47;;;;;;;52.67;21.30;;;;;;;;;;6224268;22;20019;-64
2022/01/16 09:14:14;;;;;;;50.30;24.10;;;;;;;;;;6249221;22;20007;-64
2022/01/16 09:16:40;;;;;;;50.30;24.42;;;;;;;;;;6277519;22;20018;-65
2022/01/16 09:19:07;;;;;;;50.95;21.67;;;;;;;;;;6225418;22;20437;-65
2022/01/16 09:21:33;;;;;;;51.17;22.33;;;;;;;;;;6250452;22;20123;-65
2022/01/16 09:23:59;;;;;;;54.70;23.00;;;;;;;;;;6251432;22;20498;-64
2022/01/16 09:26:26;;;;;;;48.72;22.60;;;;;;;;;;6251092;22;20008;-64
2022/01/16 09:28:52;;;;;;;47.40;22.20;;;;;;;;;;6250629;22;20015;-66
2022/01/16 09:31:18;;;;;;;48.40;23.55;;;;;;;;;;6250538;22;20007;-65
2022/01/16 09:33:44;;;;;;;48.58;21.77;;;;;;;;;;6251175;22;20498;-64
2022/01/16 09:36:10;;;;;;;56.75;24.73;;;;;;;;;;6278017;22;20015;-64
2022/01/16 09:38:37;;;;;;;47.45;21.95;;;;;;;;;;6278631;22;20047;-64
2022/01/16 09:41:04;;;;;;;44.10;23.08;;;;;;;;;;6250872;22;20054;-64
2022/01/16 09:43:32;;;;;;;53.88;22.52;;;;;;;;;;6252855;22;20012;-64
2022/01/16 09:45:58;;;;;;;48.35;22.30;;;;;;;;;;6225375;22;20437;-64
2022/01/16 09:48:24;;;;;;;47.70;22.83;;;;;;;;;;6250612;22;20020;-65
2022/01/16 09:50:50;;;;;;;43.17;19.63;;;;;;;;;;6250833;22;20069;-64
2022/01/16 09:53:17;;;;;;;36.55;18.50;;;;;;;;;;6226406;22;20436;-64
2022/01/16 09:55:43;;;;;;;36.10;15.63;;;;;;;;;;6225587;22;20444;-64
2022/01/16 09:58:10;;;;;;;38.30;18.73;;;;;;;;;;6226011;22;20012;-64
2022/01/16 10:00:36;;;;;;;38.58;17.80;;;;;;;;;;6225264;22;20022;-64
2022/01/16 10:03:03;;;;;;;39.85;18.17;;;;;;;;;;6251143;22;20019;-64
2022/01/16 10:05:35;;;;;;;33.50;15.43;;;;;;;;;;6251131;22;20020;-64
2022/01/16 10:08:03;;;;;;;36.53;16.98;;;;;;;;;;6250380;22;20012;-64
2022/01/16 10:10:33;;;;;;;31.08;16.20;;;;;;;;;;6250986;22;20081;-65
2022/01/16 10:13:07;;;;;;;24.17;10.55;;;;;;;;;;6225338;22;20421;-64
2022/01/16 10:15:34;;;;;;;30.30;11.95;;;;;;;;;;6250882;22;20015;-64
2022/01/16 10:18:01;;;;;;;24.95;11.25;;;;;;;;;;6226703;22;20086;-64
2022/01/16 10:20:29;;;;;;;23.02;10.40;;;;;;;;;;6250611;22;20016;-64
2022/01/16 10:23:00;;;;;;;27.65;8.55;;;;;;;;;;6251504;22;20012;-64
2022/01/16 10:25:47;;;;;;;19.08;7.72;;;;;;;;;;6251347;22;20020;-64
2022/01/16 10:28:24;;;;;;;18.33;7.82;;;;;;;;;;6250840;22;20057;-64
2022/01/16 10:30:55;;;;;;;23.27;9.38;;;;;;;;;;6250986;22;20017;-64
2022/01/16 10:33:23;;;;;;;18.92;7.05;;;;;;;;;;6251445;22;20019;-64
2022/01/16 10:35:50;;;;;;;24.95;8.25;;;;;;;;;;6250963;22;20008;-64
2022/01/16 10:38:18;;;;;;;19.95;7.43;;;;;;;;;;6225412;22;20012;-64
2022/01/16 10:40:50;;;;;;;21.08;6.95;;;;;;;;;;6250353;22;20016;-64
2022/01/16 10:43:16;;;;;;;19.70;7.38;;;;;;;;;;6249764;22;20012;-64
2022/01/16 10:45:43;;;;;;;14.13;6.13;;;;;;;;;;6250759;22;20320;-65
2022/01/16 10:48:10;;;;;;;19.70;7.15;;;;;;;;;;6248637;22;20054;-67
2022/01/16 10:50:38;;;;;;;14.70;5.20;;;;;;;;;;6250641;22;20016;-64
2022/01/16 10:53:05;;;;;;;20.20;6.50;;;;;;;;;;6251881;22;20019;-64
2022/01/16 10:55:32;;;;;;;27.30;7.43;;;;;;;;;;6224332;22;20337;-64
2022/01/16 10:58:23;;;;;;;17.42;5.13;;;6.90;99.90;;;;;;6250463;22;20015;-64
2022/01/16 11:00:52;;;;;;;22.45;6.88;;;;;;;;;;6262110;22;20303;-64
2022/01/16 11:03:18;;;;;;;14.85;5.93;;;;;;;;;;6226269;22;20321;-64
2022/01/16 11:05:45;;;;;;;14.68;5.68;;;;;;;;;;6225357;22;20493;-64
2022/01/16 11:08:13;;;;;;;21.05;5.90;;;;;;;;;;6249529;22;20090;-65
2022/01/16 11:10:41;;;;;;;12.68;4.88;;;;;;;;;;6249920;22;20014;-64
2022/01/16 11:13:09;;;;;;;18.13;5.32;;;;;;;;;;6223673;22;20016;-65
2022/01/16 11:15:35;;;;;;;18.10;6.65;;;;;;;;;;6248440;22;20086;-64
2022/01/16 11:18:02;;;;;;;17.48;6.18;;;;;;;;;;6222674;22;20356;-65
2022/01/16 11:20:33;;;;;;;21.25;6.60;;;;;;;;;;6247851;22;20018;-66
2022/01/16 11:25:49;;;;;;;17.55;5.90;;;;;;;;;;6183635;23;20024;-65
2022/01/16 11:28:16;;;;;;;22.30;6.82;;;;;;;;;;6159225;23;20017;-66
2022/01/16 11:30:49;;;;;;;20.08;6.85;;;;;;;;;;6183649;23;20020;-65
2022/01/16 11:33:16;;;;;;;17.50;7.05;;;;;;;;;;6184785;23;20024;-66
2022/01/16 11:35:48;;;;;;;19.90;7.18;;;;;;;;;;6184125;23;20426;-65
2022/01/16 11:38:14;;;;;;;19.30;5.97;;;;;;;;;;6185431;23;20020;-66
2022/01/16 11:40:48;;;;;;;18.13;6.30;;;;;;;;;;6186003;23;20059;-65
2022/01/16 11:43:23;;;;;;;18.30;7.30;;;;;;;;;;6160351;23;20016;-65
2022/01/16 11:46:09;;;;;;;17.35;5.72;;;7.20;99.90;;;;;;6161484;23;20017;-65
2022/01/16 11:48:39;;;;;;;17.27;6.30;;;;;;;;;;6185242;23;20023;-65
2022/01/16 11:51:25;;;;;;;12.13;5.82;;;;;;;;;;6160987;23;20017;-66
2022/01/16 11:54:07;;;;;;;17.48;7.00;;;;;;;;;;6186317;23;20017;-66
2022/01/16 11:56:45;;;;;;;25.73;6.35;;;;;;;;;;6161737;23;20008;-65
2022/01/16 11:59:20;;;;;;;20.42;6.95;;;;;;;;;;6186183;23;20032;-66
2022/01/16 12:01:46;;;;;;;18.88;8.20;;;;;;;;;;6189171;22;20032;-65
2022/01/16 12:04:30;;;;;;;18.23;7.80;;;;;;;;;;6248469;22;20083;-65
2022/01/16 12:06:56;;;;;;;20.30;7.22;;;;;;;;;;6247899;22;20429;-65
2022/01/16 12:09:48;;;;;;;20.73;9.27;;;;;;;;;;6247727;22;20014;-65
2022/01/16 12:12:14;;;;;;;16.80;8.23;;;;;;;;;;6222305;22;20016;-66
2022/01/16 12:14:46;;;;;;;18.92;7.93;;;;;;;;;;6248407;22;20101;-66
2022/01/16 12:17:28;;;;;;;25.77;8.05;;;;;;;;;;6248095;22;20012;-65
2022/01/16 12:19:54;;;;;;;19.80;7.18;;;;;;;;;;6244220;22;20023;-69
2022/01/16 12:22:43;;;;;;;17.25;6.97;;;;;;;;;;6236658;22;20047;-66
2022/01/16 12:25:29;;;;;;;23.48;7.68;;;;;;;;;;6214651;22;20016;-66
2022/01/16 12:28:02;;;;;;;16.90;7.47;;;;;;;;;;6223531;22;20019;-65
2022/01/16 12:30:33;;;;;;;21.13;8.43;;;;;;;;;;6247126;22;20118;-64
2022/01/16 12:32:59;;;;;;;18.85;7.15;;;;;;;;;;6222439;22;20325;-64
2022/01/16 12:35:54;;;;;;;20.38;7.45;;;7.60;99.90;;;;;;6250172;22;20547;-64
2022/01/16 12:38:22;;;;;;;19.75;7.38;;;;;;;;;;6225439;22;20321;-64
2022/01/16 12:41:12;;;;;;;19.58;7.00;;;;;;;;;;6224510;22;20016;-64
2022/01/16 12:43:47;;;;;;;19.55;6.63;;;;;;;;;;6230925;22;20356;-64
2022/01/16 12:46:17;;;;;;;15.80;6.28;;;;;;;;;;6249277;22;20008;-65
2022/01/16 12:48:47;;;;;;;17.85;6.75;;;;;;;;;;6222128;22;20012;-64
2022/01/16 12:51:15;;;;;;;18.30;7.35;;;;;;;;;;6249149;22;20066;-64
2022/01/16 12:53:41;;;;;;;18.30;8.60;;;;;;;;;;6249694;22;20027;-64
2022/01/16 12:56:25;;;;;;;13.63;6.18;;;;;;;;;;6249950;22;20020;-65
2022/01/16 12:59:11;;;;;;;22.05;9.93;;;;;;;;;;6251848;22;20016;-64
2022/01/16 13:01:49;;;;;;;23.40;9.18;;;;;;;;;;6224371;22;20436;-65
2022/01/16 13:04:19;;;;;;;21.42;7.63;;;;;;;;;;6223531;22;20043;-65
2022/01/16 13:06:45;;;;;;;15.98;6.78;;;;;;;;;;6250353;22;20098;-65
2022/01/16 13:09:12;;;;;;;16.13;6.25;;;;;;;;;;6251641;22;20023;-64
2022/01/16 13:11:42;;;;;;;18.02;7.85;;;;;;;;;;6251704;22;20019;-64
2022/01/16 13:14:13;;;;;;;20.33;8.23;;;;;;;;;;6252474;22;20020;-64
2022/01/16 13:16:40;;;;;;;19.92;9.05;;;;;;;;;;6252412;22;20486;-64
2022/01/16 13:19:13;;;;;;;24.60;9.43;;;;;;;;;;6251230;22;20015;-64
2022/01/16 13:21:40;;;;;;;17.80;6.55;;;;;;;;;;6226646;22;20049;-64
2022/01/16 13:24:06;;;;;;;16.13;6.38;;;;;;;;;;6226096;22;20428;-64
2022/01/16 13:26:34;;;;;;;19.55;9.30;;;;;;;;;;6251380;22;20008;-64
2022/01/16 13:29:01;;;;;;;17.63;6.20;;;;;;;;;;6226187;22;20213;-64
2022/01/16 13:31:27;;;;;;;25.55;7.18;;;;;;;;;;6251733;22;20478;-64
2022/01/16 13:34:13;;;;;;;11.77;4.68;;;;;;;;;;6227426;22;20050;-64
2022/01/16 13:36:49;;;;;;;18.63;5.43;;;;;;;;;;6252161;22;20020;-64
2022/01/16 13:39:15;;;;;;;12.98;4.60;;;;;;;;;;6226053;22;20421;-64
2022/01/16 13:41:44;;;;;;;19.75;6.50;;;;;;;;;;6251855;22;20432;-64
2022/01/16 13:44:28;;;;;;;13.23;4.47;;;;;;;;;;6225110;22;20027;-64
2022/01/16 13:46:58;;;;;;;12.98;5.95;;;;;;;;;;6249893;22;20095;-64
2022/01/16 13:49:24;;;;;;;17.45;5.00;;;;;;;;;;6249963;22;20012;-64
2022/01/16 13:51:59;;;;;;;14.20;5.20;;;;;;;;;;6225425;22;20488;-65
2022/01/16 13:54:32;;;;;;;17.83;6.90;;;;;;;;;;6225357;22;20055;-64
2022/01/16 13:57:00;;;;;;;19.23;8.15;;;;;;;;;;6250801;22;20015;-66
2022/01/16 13:59:27;;;;;;;11.32;5.07;;;;;;;;;;6225291;22;20017;-64
2022/01/16 14:01:54;;;;;;;10.73;5.35;;;;;;;;;;6250463;22;20012;-65
2022/01/16 14:04:20;;;;;;;11.80;5.97;;;;;;;;;;6224854;22;20011;-65
2022/01/16 14:06:48;;;;;;;19.77;7.68;;;;;;;;;;6251258;22;20050;-64
2022/01/16 14:09:15;;;;;;;17.75;7.32;;;;;;;;;;6251070;22;20429;-64
2022/01/16 14:11:45;;;;;;;16.50;5.20;;;;;;;;;;6225401;22;20028;-65
2022/01/16 14:14:12;;;;;;;20.10;6.78;;;;;;;;;;6251432;22;20437;-65
2022/01/16 14:16:47;;;;;;;17.27;7.07;;;;;;;;;;6226790;22;20428;-65
2022/01/16 14:19:21;;;;;;;20.55;6.80;;;;;;;;;;6226145;22;20448;-64
2022/01/16 14:22:10;;;;;;;25.80;6.28;;;;;;;;;;6220354;23;20326;-65
2022/01/16 14:24:36;;;;;;;18.83;5.97;;;;;;;;;;6220743;23;20012;-64
2022/01/16 14:27:04;;;;;;;19.20;6.15;;;;;;;;;;6245521;23;20015;-64
2022/01/16 14:29:31;;;;;;;22.85;7.15;;;;;;;;;;6219980;23;20028;-65
2022/01/16 14:31:58;;;;;;;17.98;5.13;;;;;;;;;;6245850;23;20016;-64
2022/01/16 14:34:24;;;;;;;30.10;10.55;;;;;;;;;;6245802;23;20047;-65
2022/01/16 14:36:51;;;;;;;17.30;7.00;;;;;;;;;;6245233;23;20018;-64
2022/01/16 14:39:17;;;;;;;12.63;5.22;;;;;;;;;;6244682;23;20012;-64
2022/01/16 14:41:47;;;;;;;20.60;6.70;;;;;;;;;;6220208;23;20020;-64
2022/01/16 14:44:14;;;;;;;14.95;6.32;;;;;;;;;;6221350;23;20016;-64
2022/01/16 14:46:41;;;;;;;18.92;6.28;;;;;;;;;;6221355;23;20012;-64
2022/01/16 14:49:07;;;;;;;19.27;6.55;;;;;;;;;;6219995;23;20020;-64
2022/01/16 14:51:33;;;;;;;23.00;7.32;;;;;;;;;;6220573;23;20019;-64
2022/01/16 14:54:03;;;;;;;23.70;6.93;;;;;;;;;;6246349;23;20373;-64
2022/01/16 14:56:29;;;;;;;18.63;8.23;;;;;;;;;;6246141;23;20031;-64
2022/01/16 14:58:56;;;;;;;22.10;7.93;;;;;;;;;;6244788;23;20039;-64